createdAt,value
2019-01-09T00:02:05.186Z,98347.46
2019-01-09T00:05:07.188Z,98341.73
2019-01-09T00:08:09.151Z,98346.05
2019-01-09T00:11:11.120Z,98348.76
2019-01-09T00:14:13.088Z,98345.50
2019-01-09T00:17:15.015Z,98355.81
2019-01-09T00:20:17.056Z,98358.00
2019-01-09T00:23:19.022Z,98362.05
2019-01-09T00:26:21.620Z,98362.30
2019-01-09T00:29:23.560Z,98356.86
2019-01-09T00:32:25.550Z,98355.48
2019-01-09T00:35:27.590Z,98359.58
2019-01-09T00:38:29.663Z,98357.09
2019-01-09T00:41:31.574Z,98363.63
2019-01-09T00:44:33.594Z,98364.70
2019-01-09T00:47:35.550Z,98369.64
2019-01-09T00:50:37.659Z,98375.88
2019-01-09T00:53:39.551Z,98373.97
2019-01-09T00:56:41.495Z,98378.59
2019-01-09T00:59:43.610Z,98378.05
2019-01-09T01:03:08.972Z,98370.20
2019-01-09T01:06:23.549Z,98378.14
2019-01-09T01:09:29.163Z,98382.50
2019-01-09T01:12:54.184Z,98390.13
2019-01-09T01:16:22.074Z,98384.66
2019-01-09T01:19:30.406Z,98382.50
2019-01-09T01:23:09.737Z,98390.18
2019-01-09T01:26:24.141Z,98385.79
2019-01-09T01:29:44.861Z,98383.64
2019-01-09T01:33:05.744Z,98386.63
2019-01-09T01:36:29.792Z,98390.45
2019-01-09T01:39:41.353Z,98396.44
2019-01-09T01:43:06.387Z,98395.09
2019-01-09T01:46:24.310Z,98394.27
2019-01-09T01:49:46.775Z,98399.20
2019-01-09T01:52:58.228Z,98393.77
2019-01-09T01:56:10.165Z,98395.69
2019-01-09T01:59:15.679Z,98401.14
2019-01-09T02:02:21.342Z,98388.66
2019-01-09T02:05:27.006Z,98403.30
2019-01-09T02:08:32.676Z,98405.20
2019-01-09T02:11:38.233Z,98403.61
2019-01-09T02:14:53.077Z,98407.70
2019-01-09T02:18:07.369Z,98407.16
2019-01-09T02:21:15.946Z,98410.95
2019-01-09T02:24:21.511Z,98403.61
2019-01-09T02:27:27.146Z,98404.42
2019-01-09T02:30:47.556Z,98407.68
2019-01-09T02:33:49.505Z,98401.71
2019-01-09T02:36:51.586Z,98398.50
2019-01-09T02:39:53.582Z,98402.56
2019-01-09T02:42:55.532Z,98394.41
2019-01-09T02:45:57.520Z,98400.36
2019-01-09T02:48:59.527Z,98399.54
2019-01-09T02:52:01.498Z,98395.44
2019-01-09T02:55:04.811Z,98399.52
2019-01-09T02:58:06.871Z,98398.40
2019-01-09T03:01:08.753Z,98397.04
2019-01-09T03:04:10.757Z,98396.78
2019-01-09T03:07:14.503Z,98396.78
2019-01-09T03:10:16.495Z,98392.96
2019-01-09T03:13:18.433Z,98398.14
2019-01-09T03:16:20.359Z,98401.12
2019-01-09T03:19:22.585Z,98395.14
2019-01-09T03:22:24.548Z,98403.84
2019-01-09T03:25:26.505Z,98399.52
2019-01-09T03:28:28.698Z,98398.16
2019-01-09T03:31:30.642Z,98394.09
2019-01-09T03:34:32.618Z,98392.74
2019-01-09T03:37:34.758Z,98394.66
2019-01-09T03:40:36.711Z,98393.04
2019-01-09T03:43:38.655Z,98394.41
2019-01-09T03:46:40.642Z,98399.84
2019-01-09T03:49:42.761Z,98395.23
2019-01-09T03:52:44.804Z,98399.06
2019-01-09T03:55:46.847Z,98392.25
2019-01-09T03:58:48.916Z,98394.98
2019-01-09T04:01:50.912Z,98400.67
2019-01-09T04:04:52.988Z,98396.90
2019-01-09T04:07:54.982Z,98401.25
2019-01-09T04:10:56.934Z,98398.27
2019-01-09T04:13:58.838Z,98404.51
2019-01-09T04:17:00.777Z,98399.31
2019-01-09T04:20:04.385Z,98400.42
2019-01-09T04:23:06.354Z,98407.22
2019-01-09T04:26:08.267Z,98406.95
2019-01-09T04:29:10.379Z,98396.34
2019-01-09T04:32:12.375Z,98400.16
2019-01-09T04:35:14.395Z,98396.59
2019-01-09T04:38:16.494Z,98395.23
2019-01-09T04:41:18.453Z,98388.98
2019-01-09T04:44:20.404Z,98389.53
2019-01-09T04:47:22.436Z,98397.95
2019-01-09T04:50:24.365Z,98387.89
2019-01-09T04:53:26.323Z,98398.50
2019-01-09T04:56:28.836Z,98400.91
2019-01-09T04:59:30.779Z,98404.99
2019-01-09T05:02:32.665Z,98401.23
2019-01-09T05:05:34.759Z,98400.97
2019-01-09T05:08:36.710Z,98402.84
2019-01-09T05:11:38.909Z,98399.87
2019-01-09T05:14:40.798Z,98408.04
2019-01-09T05:17:42.762Z,98400.44
2019-01-09T05:20:46.020Z,98394.45
2019-01-09T05:23:48.087Z,98400.17
2019-01-09T05:26:50.027Z,98402.89
2019-01-09T05:29:52.003Z,98406.68
2019-01-09T05:32:53.893Z,98401.29
2019-01-09T05:35:57.235Z,98400.73
2019-01-09T05:38:59.433Z,98409.13
2019-01-09T05:42:01.417Z,98408.88
2019-01-09T05:45:03.673Z,98415.69
2019-01-09T05:48:05.816Z,98420.32
2019-01-09T05:51:07.769Z,98423.29
2019-01-09T05:54:09.757Z,98430.08
2019-01-09T05:57:11.789Z,98430.08
2019-01-09T06:00:13.777Z,98431.70
2019-01-09T06:03:15.713Z,98429.83
2019-01-09T06:06:17.719Z,98433.89
2019-01-09T06:09:19.706Z,98439.34
2019-01-09T06:12:21.703Z,98433.34
2019-01-09T06:15:23.629Z,98442.56
2019-01-09T06:18:25.991Z,98446.08
2019-01-09T06:21:28.056Z,98447.44
2019-01-09T06:24:29.995Z,98445.28
2019-01-09T06:27:32.045Z,98451.83
2019-01-09T06:30:34.097Z,98458.88
2019-01-09T06:33:36.077Z,98453.98
2019-01-09T06:36:39.190Z,98465.41
2019-01-09T06:39:41.265Z,98463.79
2019-01-09T06:42:43.958Z,98470.30
2019-01-09T06:45:45.912Z,98475.47
2019-01-09T06:48:47.886Z,98476.83
2019-01-09T06:51:49.819Z,98478.45
2019-01-09T06:54:51.822Z,98481.71
2019-01-09T06:57:53.919Z,98482.81
2019-01-09T07:00:55.932Z,98488.25
2019-01-09T07:03:57.807Z,98486.89
2019-01-09T07:06:59.743Z,98488.50
2019-01-09T07:10:01.946Z,98493.38
2019-01-09T07:13:03.950Z,98496.36
2019-01-09T07:16:05.882Z,98493.13
2019-01-09T07:19:07.774Z,98502.63
2019-01-09T07:22:09.664Z,98507.78
2019-01-09T07:25:11.577Z,98506.16
2019-01-09T07:28:13.507Z,98511.05
2019-01-09T07:31:15.576Z,98514.56
2019-01-09T07:34:17.502Z,98516.73
2019-01-09T07:37:19.467Z,98522.16
2019-01-09T07:40:22.362Z,98523.53
2019-01-09T07:43:24.356Z,98523.27
2019-01-09T07:46:26.262Z,98524.89
2019-01-09T07:49:28.234Z,98532.78
2019-01-09T07:52:30.248Z,98536.57
2019-01-09T07:55:32.227Z,98532.23
2019-01-09T07:58:34.302Z,98538.48
2019-01-09T08:01:36.356Z,98531.42
2019-01-09T08:04:38.311Z,98537.67
2019-01-09T08:07:40.322Z,98543.10
2019-01-09T08:10:42.427Z,98547.98
2019-01-09T08:13:44.406Z,98540.64
2019-01-09T08:16:46.307Z,98543.36
2019-01-09T08:19:49.483Z,98549.05
2019-01-09T08:22:51.462Z,98558.30
2019-01-09T08:25:53.423Z,98552.31
2019-01-09T08:28:55.360Z,98550.11
2019-01-09T08:31:57.314Z,98557.19
2019-01-09T08:34:59.532Z,98556.34
2019-01-09T08:38:02.836Z,98564.75
2019-01-09T08:41:05.778Z,98563.94
2019-01-09T08:44:07.790Z,98573.45
2019-01-09T08:47:09.704Z,98574.56
2019-01-09T08:50:11.711Z,98581.91
2019-01-09T08:53:14.847Z,98572.89
2019-01-09T08:56:16.867Z,98584.33
2019-01-09T08:59:19.398Z,98590.83
2019-01-09T09:02:21.387Z,98594.64
2019-01-09T09:05:23.299Z,98597.87
2019-01-09T09:08:25.861Z,98596.00
2019-01-09T09:11:27.849Z,98599.54
2019-01-09T09:14:30.248Z,98600.89
2019-01-09T09:17:32.145Z,98612.59
2019-01-09T09:20:34.161Z,98618.31
2019-01-09T09:23:36.132Z,98613.39
2019-01-09T09:26:38.111Z,98619.08
2019-01-09T09:29:40.068Z,98616.08
2019-01-09T09:32:42.058Z,98626.41
2019-01-09T09:35:43.982Z,98631.31
2019-01-09T09:38:45.960Z,98627.23
2019-01-09T09:41:48.041Z,98628.08
2019-01-09T09:44:50.039Z,98622.89
2019-01-09T09:47:52.428Z,98622.09
2019-01-09T09:50:54.413Z,98630.50
2019-01-09T09:53:56.460Z,98629.70
2019-01-09T09:56:58.501Z,98629.94
2019-01-09T10:00:00.496Z,98632.64
2019-01-09T10:03:02.664Z,98636.42
2019-01-09T10:06:04.584Z,98638.28
2019-01-09T10:09:08.105Z,98636.06
2019-01-09T10:12:10.095Z,98636.30
2019-01-09T10:15:15.819Z,98632.20
2019-01-09T10:18:18.788Z,98632.08
2019-01-09T10:21:20.775Z,98631.40
2019-01-09T10:24:22.685Z,98636.25
2019-01-09T10:27:25.699Z,98638.44
2019-01-09T10:30:27.616Z,98639.27
2019-01-09T10:33:29.627Z,98640.56
2019-01-09T10:36:31.590Z,98642.81
2019-01-09T10:39:33.590Z,98642.29
2019-01-09T10:42:35.729Z,98645.25
2019-01-09T10:45:37.727Z,98645.80
2019-01-09T10:48:39.655Z,98660.44
2019-01-09T10:51:41.671Z,98662.09
2019-01-09T10:54:43.635Z,98659.87
2019-01-09T10:57:45.595Z,98658.25
2019-01-09T11:00:47.683Z,98665.30
2019-01-09T11:03:49.770Z,98668.05
2019-01-09T11:06:51.743Z,98661.77
2019-01-09T11:09:53.732Z,98662.03
2019-01-09T11:12:55.730Z,98652.16
2019-01-09T11:15:57.702Z,98660.00
2019-01-09T11:18:59.624Z,98651.83
2019-01-09T11:22:01.721Z,98647.19
2019-01-09T11:25:08.555Z,98649.12
2019-01-09T11:28:10.499Z,98648.80
2019-01-09T11:31:12.429Z,98656.91
2019-01-09T11:34:14.517Z,98650.84
2019-01-09T11:37:16.453Z,98651.08
2019-01-09T11:40:19.098Z,98643.19
2019-01-09T11:43:21.196Z,98649.69
2019-01-09T11:46:23.158Z,98650.80
2019-01-09T11:49:25.084Z,98652.76
2019-01-09T11:52:27.635Z,98655.51
2019-01-09T11:55:29.621Z,98654.61
2019-01-09T11:58:31.702Z,98655.97
2019-01-09T12:01:33.663Z,98666.06
2019-01-09T12:04:35.738Z,98662.29
2019-01-09T12:07:37.884Z,98668.83
2019-01-09T12:10:39.954Z,98668.83
2019-01-09T12:13:41.913Z,98670.51
2019-01-09T12:16:44.260Z,98674.58
2019-01-09T12:19:46.187Z,98674.63
2019-01-09T12:22:48.235Z,98679.84
2019-01-09T12:25:50.191Z,98677.15
2019-01-09T12:28:53.723Z,98682.60
2019-01-09T12:31:56.019Z,98684.50
2019-01-09T12:34:58.022Z,98694.66
2019-01-09T12:37:59.934Z,98695.00
2019-01-09T12:41:01.892Z,98700.20
2019-01-09T12:44:04.227Z,98702.95
2019-01-09T12:47:06.226Z,98709.23
2019-01-09T12:50:11.778Z,98710.59
2019-01-09T12:53:13.769Z,98722.03
2019-01-09T12:56:15.708Z,98724.47
2019-01-09T12:59:21.777Z,98728.03
2019-01-09T13:02:21.555Z,98738.38
2019-01-09T13:05:24.050Z,98735.66
2019-01-09T13:08:25.956Z,98745.49
2019-01-09T13:11:27.939Z,98749.03
2019-01-09T13:14:30.031Z,98745.98
2019-01-09T13:17:32.634Z,98756.34
2019-01-09T13:20:34.999Z,98753.34
2019-01-09T13:23:37.001Z,98759.32
2019-01-09T13:26:38.940Z,98761.80
2019-01-09T13:29:40.923Z,98763.42
2019-01-09T13:32:42.894Z,98766.13
2019-01-09T13:35:44.825Z,98768.30
2019-01-09T13:38:46.756Z,98781.63
2019-01-09T13:41:48.773Z,98783.53
2019-01-09T13:44:50.940Z,98790.09
2019-01-09T13:47:53.035Z,98790.13
2019-01-09T13:50:54.954Z,98791.17
2019-01-09T13:53:56.905Z,98792.30
2019-01-09T13:56:58.915Z,98791.25
2019-01-09T14:00:00.906Z,98791.54
2019-01-09T14:03:03.053Z,98796.22
2019-01-09T14:06:05.030Z,98805.77
2019-01-09T14:09:07.180Z,98807.69
2019-01-09T14:12:09.274Z,98810.66
2019-01-09T14:15:14.156Z,98810.65
2019-01-09T14:18:16.611Z,98816.09
2019-01-09T14:21:18.587Z,98813.70
2019-01-09T14:24:20.557Z,98825.98
2019-01-09T14:27:22.497Z,98825.44
2019-01-09T14:30:26.381Z,98832.00
2019-01-09T14:33:28.323Z,98836.34
2019-01-09T14:36:30.323Z,98847.28
2019-01-09T14:39:32.241Z,98852.18
2019-01-09T14:42:34.273Z,98857.34
2019-01-09T14:45:36.372Z,98862.23
2019-01-09T14:48:38.344Z,98865.77
2019-01-09T14:51:43.187Z,98869.89
2019-01-09T14:54:44.303Z,98874.49
2019-01-09T14:57:46.437Z,98872.61
2019-01-09T15:00:48.462Z,98879.38
2019-01-09T15:03:50.411Z,98880.19
2019-01-09T15:06:52.462Z,98885.12
2019-01-09T15:09:56.760Z,98897.64
2019-01-09T15:12:59.069Z,98894.06
2019-01-09T15:16:01.098Z,98894.36
2019-01-09T15:19:03.958Z,98908.54
2019-01-09T15:22:05.887Z,98913.44
2019-01-09T15:25:10.350Z,98907.45
2019-01-09T15:28:12.292Z,98913.45
2019-01-09T15:31:14.274Z,98921.11
2019-01-09T15:34:16.209Z,98926.56
2019-01-09T15:37:18.331Z,98930.67
2019-01-09T15:40:22.870Z,98933.95
2019-01-09T15:43:24.865Z,98936.13
2019-01-09T15:46:26.959Z,98944.56
2019-01-09T15:49:29.004Z,98952.19
2019-01-09T15:52:30.941Z,98957.08
2019-01-09T15:55:33.096Z,98960.91
2019-01-09T15:58:35.110Z,98968.53
2019-01-09T16:01:37.065Z,98975.89
2019-01-09T16:04:39.166Z,98978.32
2019-01-09T16:07:41.634Z,98985.69
2019-01-09T16:10:43.618Z,98990.85
2019-01-09T16:13:45.627Z,99001.20
2019-01-09T16:16:47.575Z,99003.38
2019-01-09T16:19:50.016Z,99000.95
2019-01-09T16:22:51.969Z,99008.57
2019-01-09T16:25:53.977Z,99014.31
2019-01-09T16:28:55.913Z,99021.94
2019-01-09T16:31:57.923Z,99019.47
2019-01-09T16:34:59.820Z,99030.11
2019-01-09T16:38:01.746Z,99026.02
2019-01-09T16:41:03.790Z,99030.11
2019-01-09T16:44:05.807Z,99036.38
2019-01-09T16:47:07.911Z,99038.84
2019-01-09T16:50:19.340Z,99043.19
2019-01-09T16:53:21.263Z,99054.35
2019-01-09T16:56:23.235Z,99055.18
2019-01-09T16:59:25.433Z,99067.45
2019-01-09T17:02:27.474Z,99075.86
2019-01-09T17:05:29.433Z,99079.09
2019-01-09T17:08:31.393Z,99080.16
2019-01-09T17:11:33.352Z,99083.41
2019-01-09T17:14:35.359Z,99087.95
2019-01-09T17:17:37.398Z,99096.34
2019-01-09T17:20:39.404Z,99098.70
2019-01-09T17:23:41.431Z,99103.78
2019-01-09T17:26:43.743Z,99112.47
2019-01-09T17:29:45.669Z,99129.22
2019-01-09T17:32:47.713Z,99127.98
2019-01-09T17:35:49.832Z,99133.92
2019-01-09T17:38:52.169Z,99140.61
2019-01-09T17:41:54.072Z,99146.34
2019-01-09T17:44:56.061Z,99148.09
2019-01-09T17:47:58.156Z,99158.74
2019-01-09T17:51:00.116Z,99168.30
2019-01-09T17:54:02.048Z,99164.13
2019-01-09T17:57:03.976Z,99182.05
2019-01-09T18:00:15.344Z,99185.80
2019-01-09T18:03:17.574Z,99191.23
2019-01-09T18:06:19.467Z,99192.83
2019-01-09T18:09:21.447Z,99202.37
2019-01-09T18:12:23.406Z,99210.88
2019-01-09T18:15:25.414Z,99219.27
2019-01-09T18:18:28.858Z,99213.87
2019-01-09T18:21:30.846Z,99216.58
2019-01-09T18:24:32.805Z,99223.68
2019-01-09T18:27:36.370Z,99224.73
2019-01-09T18:30:41.958Z,99230.95
2019-01-09T18:33:47.357Z,99234.76
2019-01-09T18:37:04.904Z,99240.80
2019-01-09T18:40:33.137Z,99246.29
2019-01-09T18:43:56.250Z,99252.84
2019-01-09T18:47:18.825Z,99259.78
2019-01-09T18:50:42.858Z,99264.03
2019-01-09T18:53:44.981Z,99278.33
2019-01-09T18:56:46.871Z,99288.45
2019-01-09T18:59:50.720Z,99290.17
2019-01-09T19:02:52.650Z,99295.14
2019-01-09T19:05:56.026Z,99295.14
2019-01-09T19:08:57.931Z,99306.58
2019-01-09T19:12:00.221Z,99309.09
2019-01-09T19:15:03.594Z,99318.84
2019-01-09T19:18:05.668Z,99320.78
2019-01-09T19:21:08.685Z,99326.55
2019-01-09T19:24:10.971Z,99339.73
2019-01-09T19:27:14.732Z,99344.55
2019-01-09T19:30:25.679Z,99354.02
2019-01-09T19:33:27.587Z,99352.66
2019-01-09T19:36:29.887Z,99355.34
2019-01-09T19:39:33.158Z,99361.28
2019-01-09T19:42:35.141Z,99372.42
2019-01-09T19:45:37.210Z,99365.09
2019-01-09T19:48:40.996Z,99371.91
2019-01-09T19:51:45.843Z,99377.97
2019-01-09T19:54:48.182Z,99378.63
2019-01-09T19:57:50.078Z,99384.05
2019-01-09T20:00:52.063Z,99387.52
2019-01-09T20:03:53.993Z,99387.48
2019-01-09T20:06:55.994Z,99400.94
2019-01-09T20:09:58.367Z,99399.31
2019-01-09T20:13:01.325Z,99403.77
2019-01-09T20:16:05.028Z,99406.63
2019-01-09T20:19:07.257Z,99412.48
2019-01-09T20:22:10.096Z,99418.73
2019-01-09T20:25:14.163Z,99426.03
2019-01-09T20:28:16.369Z,99434.19
2019-01-09T20:31:21.782Z,99433.68
2019-01-09T20:34:24.424Z,99445.14
2019-01-09T20:37:30.118Z,99455.23
2019-01-09T20:40:32.551Z,99451.08
2019-01-09T20:43:36.042Z,99452.48
2019-01-09T20:46:38.169Z,99454.96
2019-01-09T20:49:40.295Z,99466.81
2019-01-09T20:52:43.824Z,99466.85
2019-01-09T20:55:45.893Z,99472.06
2019-01-09T20:58:47.833Z,99474.90
2019-01-09T21:01:51.153Z,99486.35
2019-01-09T21:04:53.265Z,99490.70
2019-01-09T21:07:55.536Z,99511.33
2019-01-09T21:10:58.697Z,99510.85
2019-01-09T21:14:00.808Z,99515.47
2019-01-09T21:17:03.872Z,99521.19
2019-01-09T21:20:09.602Z,99523.91
2019-01-09T21:23:11.759Z,99532.95
2019-01-09T21:26:15.695Z,99539.62
2019-01-09T21:29:19.505Z,99541.75
2019-01-09T21:32:22.194Z,99537.72
2019-01-09T21:35:24.072Z,99553.52
2019-01-09T21:38:26.112Z,99559.11
2019-01-09T21:41:28.022Z,99562.09
2019-01-09T21:44:30.151Z,99559.20
2019-01-09T21:47:32.109Z,99561.05
2019-01-09T21:50:34.093Z,99572.51
2019-01-09T21:53:36.208Z,99572.42
2019-01-09T21:56:38.186Z,99584.00
2019-01-09T21:59:40.149Z,99585.66
2019-01-09T22:02:42.139Z,99598.11
2019-01-09T22:05:44.181Z,99595.55
2019-01-09T22:08:46.148Z,99600.45
2019-01-09T22:11:48.672Z,99609.52
2019-01-09T22:14:51.027Z,99608.92
2019-01-09T22:17:53.019Z,99615.84
2019-01-09T22:20:55.015Z,99627.66
2019-01-09T22:23:56.983Z,99630.97
2019-01-09T22:26:58.949Z,99631.95
2019-01-09T22:30:00.870Z,99632.99
2019-01-09T22:33:04.081Z,99632.66
2019-01-09T22:36:06.100Z,99643.83
2019-01-09T22:39:08.124Z,99635.19
2019-01-09T22:42:11.986Z,99650.73
2019-01-09T22:45:14.947Z,99641.44
2019-01-09T22:48:16.895Z,99650.56
2019-01-09T22:51:18.989Z,99654.44
2019-01-09T22:54:21.169Z,99653.55
2019-01-09T22:57:23.186Z,99669.95
2019-01-09T23:00:29.388Z,99674.63
2019-01-09T23:03:31.373Z,99672.27
2019-01-09T23:06:34.226Z,99667.33
2019-01-09T23:09:36.234Z,99679.95
2019-01-09T23:12:38.149Z,99682.57
2019-01-09T23:15:41.537Z,99686.70
2019-01-09T23:18:43.794Z,99690.00
2019-01-09T23:21:45.783Z,99686.16
2019-01-09T23:24:47.937Z,99689.51
2019-01-09T23:27:49.931Z,99705.38
2019-01-09T23:30:51.910Z,99706.52
2019-01-09T23:33:54.028Z,99703.69
2019-01-09T23:36:55.996Z,99713.13
2019-01-09T23:39:58.938Z,99709.78
2019-01-09T23:43:00.912Z,99711.34
2019-01-09T23:46:03.705Z,99713.33
2019-01-09T23:49:05.686Z,99717.59
2019-01-09T23:52:07.755Z,99719.59
2019-01-09T23:55:11.505Z,99725.48
2019-01-09T23:58:13.492Z,99729.06
